Time;durP1;ratioP1;P1;durP2;ratioP2;P2;SDS_P1;SDS_P2;PMS_P1;PMS_P2;Temp;Humidity;BMP_temperature;BMP_pressure;BME280_temperature;BME280_humidity;BME280_pressure;Samples;Min_cycle;Max_cycle;Signal;HPM_P1;HPM_P2
2022/03/12 00:01:19;;;;;;;;;;;;;;;-5.01;51.50;102758.84;1678966;85;27399;-58
2022/03/12 00:03:47;;;;;;;;;;;;;;;-5.04;51.61;102767.13;1679188;85;25776;-58
2022/03/12 00:06:17;;;;;;;;;;;;;;;-5.04;51.77;102759.70;1679037;85;25866;-58
2022/03/12 00:08:44;;;;;;;;;;;;;;;-5.05;51.94;102764.06;1678889;85;25817;-58
2022/03/12 00:11:16;;;;;;;;;;;;;;;-5.02;52.09;102771.11;1679090;85;25656;-58
2022/03/12 00:13:43;;;;;;;;;;;;;;;-4.99;52.12;102768.48;1678730;85;27499;-57
2022/03/12 00:16:22;;;;;;;;;;;;;;;-4.94;51.99;102762.86;1678862;85;25778;-58
2022/03/12 00:18:41;;;;;;;;;;;;;;;-4.92;51.86;102762.41;1677840;85;25747;-58
2022/03/12 00:21:12;;;;;;;;;;;;;;;-4.90;51.73;102764.63;1679337;84;25875;-58
2022/03/12 00:23:47;;;;;;;;;;;;;;;-4.84;51.80;102766.42;1678794;85;25797;-58
2022/03/12 00:26:10;;;;;;;;;;;;;;;-4.80;51.75;102765.59;1678589;85;28096;-59
2022/03/12 00:28:37;;;;;;;;;;;;;;;-4.75;51.67;102757.75;1678824;85;25706;-58
2022/03/12 00:31:03;;;;;;;;;;;;;;;-4.77;51.50;102759.03;1679319;84;25731;-58
2022/03/12 00:33:29;;;;;;;;;;;;;;;-4.77;51.58;102761.66;1678852;85;25658;-58
2022/03/12 00:35:56;;;;;;;;;;;;;;;-4.78;51.65;102764.28;1679371;84;25780;-58
2022/03/12 00:38:22;;;;;;;;;;;;;;;-4.80;51.59;102759.03;1679053;85;28616;-58
2022/03/12 00:40:50;;;;;;;;;;;;;;;-4.84;51.62;102761.62;1678883;85;25829;-58
2022/03/12 00:43:18;;;;;;;;;;;;;;;-4.90;51.21;102762.00;1676531;85;25795;-58
2022/03/12 00:45:47;;;;;;;;;;;;;;;-4.95;50.93;102761.52;1691056;83;26551;-58
2022/03/12 00:48:14;;;;;;;;;;;;;;;-4.99;50.47;102761.06;1691346;85;25778;-58
2022/03/12 00:50:40;;;;;;;;;;;;;;;-5.00;50.43;102765.41;1691253;83;27464;-58
2022/03/12 00:53:07;;;;;;;;;;;;;;;-5.02;50.39;102763.23;1691081;85;25785;-58
2022/03/12 00:55:34;;;;;;;;;;;;;;;-4.99;50.06;102767.62;1691364;85;25779;-58
2022/03/12 00:58:01;;;;;;;;;;;;;;;-4.99;50.13;102767.17;1688103;85;26476;-57
2022/03/12 01:00:28;;;;;;;;;;;;;;;-4.98;50.22;102765.00;1679018;85;25856;-58
2022/03/12 01:02:55;;;;;;;;;;;;;;;-4.98;49.91;102761.06;1678904;85;27357;-58
2022/03/12 01:05:24;;;;;;;;;;;;;;;-4.99;49.86;102760.61;1679092;85;25547;-58
2022/03/12 01:07:52;;;;;;;;;;;;;;;-5.00;49.71;102761.47;1678992;85;25787;-58
2022/03/12 01:10:19;;;;;;;;;;;;;;;-4.98;49.70;102756.26;1679091;85;25834;-58
2022/03/12 01:12:45;;;;;;;;;;;;;;;-4.96;49.83;102761.95;1678998;85;25710;-58
2022/03/12 01:15:12;;;;;;;;;;;;;;;-4.94;49.97;102760.23;1679043;84;28257;-58
2022/03/12 01:17:40;;;;;;;;;;;;;;;-4.91;50.09;102762.86;1678865;84;25719;-58
2022/03/12 01:20:08;;;;;;;;;;;;;;;-4.86;50.11;102762.90;1678783;85;25712;-58
2022/03/12 01:22:37;;;;;;;;;;;;;;;-4.80;50.14;102768.22;1679023;85;26571;-59
2022/03/12 01:25:06;;;;;;;;;;;;;;;-4.72;50.26;102763.00;1679094;85;25901;-58
2022/03/12 01:27:33;;;;;;;;;;;;;;;-4.66;50.30;102762.17;1679023;85;27481;-58
2022/03/12 01:30:01;;;;;;;;;;;;;;;-4.57;50.19;102756.98;1678752;85;25779;-62
2022/03/12 01:32:29;;;;;;;;;;;;;;;-4.50;50.05;102756.59;1678820;85;25747;-59
2022/03/12 01:34:55;;;;;;;;;;;;;;;-4.46;50.14;102749.16;1678828;84;27912;-59
2022/03/12 01:37:22;;;;;;;;;;;;;;;-4.39;50.11;102744.38;1679025;85;25705;-59
2022/03/12 01:39:49;;;;;;;;;;;;;;;-4.34;50.04;102740.47;1678889;85;27501;-59
2022/03/12 01:42:17;;;;;;;;;;;;;;;-4.34;49.80;102740.47;1674184;84;25747;-58
2022/03/12 01:44:44;;;;;;;;;;;;;;;-4.38;49.63;102745.28;1688246;85;25801;-59
2022/03/12 01:47:10;;;;;;;;;;;;;;;-4.41;49.69;102749.64;1691310;83;25870;-58
2022/03/12 01:49:38;;;;;;;;;;;;;;;-4.42;49.83;102758.39;1691027;85;25749;-58
2022/03/12 01:52:07;;;;;;;;;;;;;;;-4.42;49.88;102751.82;1691366;85;28192;-58
2022/03/12 01:54:34;;;;;;;;;;;;;;;-4.43;49.97;102761.87;1695396;84;25788;-58
2022/03/12 01:57:03;;;;;;;;;;;;;;;-4.39;50.08;102753.58;1693774;84;25662;-58
2022/03/12 01:59:30;;;;;;;;;;;;;;;-4.37;50.00;102753.61;1680594;84;25788;-58
2022/03/12 02:01:57;;;;;;;;;;;;;;;-4.37;49.82;102752.30;1679254;85;25471;-58
2022/03/12 02:04:29;;;;;;;;;;;;;;;-4.40;49.89;102743.52;1678922;85;27503;-58
2022/03/12 02:06:53;;;;;;;;;;;;;;;-4.46;49.72;102754.00;1678731;85;25784;-58
2022/03/12 02:09:21;;;;;;;;;;;;;;;-4.51;49.75;102760.95;1678890;85;25808;-58
2022/03/12 02:11:51;;;;;;;;;;;;;;;-4.59;49.79;102756.09;1679067;85;25743;-58
2022/03/12 02:14:22;;;;;;;;;;;;;;;-4.66;49.78;102753.84;1678972;84;25769;-58
2022/03/12 02:16:59;;;;;;;;;;;;;;;-4.73;49.87;102750.33;1678478;85;28205;-58
2022/03/12 02:19:27;;;;;;;;;;;;;;;-4.79;50.06;102754.64;1679045;85;25480;-58
2022/03/12 02:21:57;;;;;;;;;;;;;;;-4.90;50.30;102759.82;1679126;84;25479;-58
2022/03/12 02:24:26;;;;;;;;;;;;;;;-5.01;50.45;102750.97;1678375;85;25876;-59
2022/03/12 02:26:55;;;;;;;;;;;;;;;-5.09;50.57;102746.55;1679136;85;25795;-59
2022/03/12 02:29:24;;;;;;;;;;;;;;;-5.11;50.70;102752.66;1678969;85;27513;-58
2022/03/12 02:31:57;;;;;;;;;;;;;;;-5.13;51.01;102748.68;1679041;85;25752;-58
2022/03/12 02:34:29;;;;;;;;;;;;;;;-5.23;51.01;102750.36;1678664;85;25661;-58
2022/03/12 02:36:57;;;;;;;;;;;;;;;-5.35;51.02;102753.75;1678952;85;25792;-58
2022/03/12 02:39:30;;;;;;;;;;;;;;;-5.45;51.64;102749.27;1678926;85;25912;-58
2022/03/12 02:41:53;;;;;;;;;;;;;;;-5.52;51.92;102750.08;1675748;84;27748;-58
2022/03/12 02:44:23;;;;;;;;;;;;;;;-5.60;52.61;102751.30;1674951;85;25806;-57
2022/03/12 02:47:14;;;;;;;;;;;;;;;-5.68;52.50;102758.20;1678925;85;25743;-58
2022/03/12 02:49:53;;;;;;;;;;;;;;;-5.73;52.43;102759.88;1675943;85;25840;-58
2022/03/12 02:52:21;;;;;;;;;;;;;;;-5.77;52.42;102761.59;1679173;85;25776;-58
2022/03/12 02:54:49;;;;;;;;;;;;;;;-5.78;52.55;102774.24;1679060;85;27491;-58
2022/03/12 02:57:17;;;;;;;;;;;;;;;-5.79;52.34;102771.20;1679047;85;25924;-58
2022/03/12 02:59:45;;;;;;;;;;;;;;;-5.77;52.24;102771.20;1690514;85;25465;-58
2022/03/12 03:02:13;;;;;;;;;;;;;;;-5.76;52.47;102772.52;1691244;83;26467;-58
2022/03/12 03:04:41;;;;;;;;;;;;;;;-5.78;52.60;102765.51;1691044;85;25956;-58
2022/03/12 03:07:09;;;;;;;;;;;;;;;-5.83;52.64;102764.15;1691154;85;27307;-58
2022/03/12 03:09:36;;;;;;;;;;;;;;;-5.88;52.52;102761.91;1691006;85;25859;-58
2022/03/12 03:12:07;;;;;;;;;;;;;;;-5.87;52.58;102757.99;1691059;83;25801;-58
2022/03/12 03:14:33;;;;;;;;;;;;;;;-5.83;52.72;102763.70;1687167;84;25907;-58
2022/03/12 03:17:00;;;;;;;;;;;;;;;-5.83;52.74;102772.01;1662005;86;25682;-58
2022/03/12 03:19:28;;;;;;;;;;;;;;;-5.91;52.71;102764.48;1661731;86;27532;-58
2022/03/12 03:21:58;;;;;;;;;;;;;;;-6.00;52.76;102762.66;1661824;85;25974;-58
2022/03/12 03:24:25;;;;;;;;;;;;;;;-6.06;52.68;102767.83;1661836;85;25700;-58
2022/03/12 03:26:57;;;;;;;;;;;;;;;-6.09;52.84;102769.98;1662018;86;25908;-58
2022/03/12 03:29:29;;;;;;;;;;;;;;;-6.10;53.06;102765.59;1661791;86;25768;-58
2022/03/12 03:32:01;;;;;;;;;;;;;;;-6.16;53.61;102762.46;1662120;85;28127;-58
2022/03/12 03:34:26;;;;;;;;;;;;;;;-6.25;53.46;102761.47;1661722;85;25746;-58
2022/03/12 03:36:54;;;;;;;;;;;;;;;-6.33;54.43;102767.49;1662049;85;25717;-58
2022/03/12 03:39:20;;;;;;;;;;;;;;;-6.46;55.01;102771.68;1661773;86;25764;-58
2022/03/12 03:41:47;;;;;;;;;;;;;;;-6.56;54.73;102781.56;1660198;85;25503;-59
2022/03/12 03:44:18;;;;;;;;;;;;;;;-6.60;54.53;102786.28;1658293;86;27471;-59
2022/03/12 03:46:44;;;;;;;;;;;;;;;-6.64;54.60;102781.44;1661947;86;25503;-60
2022/03/12 03:49:11;;;;;;;;;;;;;;;-6.63;54.37;102787.53;1640104;85;25738;-59
2022/03/12 03:51:42;;;;;;;;;;;;;;;-6.64;54.14;102787.98;1622454;87;26582;-59
2022/03/12 03:54:08;;;;;;;;;;;;;;;-6.64;54.13;102782.73;1621785;87;25437;-59
2022/03/12 03:56:36;;;;;;;;;;;;;;;-6.62;54.13;102777.52;1622439;88;27510;-58
2022/03/12 03:59:04;;;;;;;;;;;;;;;-6.60;53.99;102781.05;1649853;86;25679;-59
2022/03/12 04:01:31;;;;;;;;;;;;;;;-6.56;53.92;102780.25;1662086;86;25656;-59
2022/03/12 04:03:58;;;;;;;;;;;;;;;-6.57;54.00;102780.20;1661933;86;25817;-59
2022/03/12 04:06:25;;;;;;;;;;;;;;;-6.56;53.96;102781.97;1662241;86;25709;-59
2022/03/12 04:08:53;;;;;;;;;;;;;;;-6.56;54.05;102790.73;1661838;86;27472;-59
2022/03/12 04:11:22;;;;;;;;;;;;;;;-6.50;53.96;102791.25;1661906;85;25800;-59
2022/03/12 04:13:51;;;;;;;;;;;;;;;-6.47;53.99;102793.89;1661673;85;26014;-59
2022/03/12 04:16:21;;;;;;;;;;;;;;;-6.44;53.85;102792.64;1687193;83;25930;-60
2022/03/12 04:18:49;;;;;;;;;;;;;;;-6.41;53.78;102797.03;1714025;83;25512;-59
2022/03/12 04:21:17;;;;;;;;;;;;;;;-6.38;53.86;102804.50;1703828;83;27503;-60
2022/03/12 04:23:46;;;;;;;;;;;;;;;-6.34;53.93;102797.16;1693992;84;25768;-59
2022/03/12 04:26:13;;;;;;;;;;;;;;;-6.33;54.07;102800.23;1701389;83;25483;-59
2022/03/12 04:28:40;;;;;;;;;;;;;;;-6.31;53.67;102798.94;1698360;83;26095;-60
2022/03/12 04:31:08;;;;;;;;;;;;;;;-6.31;53.54;102808.11;1698098;83;25768;-59
2022/03/12 04:33:38;;;;;;;;;;;;;;;-6.31;53.57;102802.86;1697432;83;27472;-60
2022/03/12 04:36:05;;;;;;;;;;;;;;;-6.35;53.59;102813.73;1696747;83;25475;-59
2022/03/12 04:38:31;;;;;;;;;;;;;;;-6.33;53.89;102813.33;1704443;83;25636;-60
2022/03/12 04:40:58;;;;;;;;;;;;;;;-6.32;53.84;102814.20;1714015;83;25780;-60
2022/03/12 04:43:26;;;;;;;;;;;;;;;-6.31;54.00;102818.14;1679260;83;25530;-59
2022/03/12 04:45:54;;;;;;;;;;;;;;;-6.30;53.75;102826.90;1683814;85;27546;-60
2022/03/12 04:48:23;;;;;;;;;;;;;;;-6.33;53.68;102827.73;1683296;85;25801;-59
2022/03/12 04:50:51;;;;;;;;;;;;;;;-6.36;53.79;102829.40;1683618;85;25815;-59
2022/03/12 04:53:19;;;;;;;;;;;;;;;-6.37;53.78;102834.22;1683264;85;25781;-60
2022/03/12 04:55:46;;;;;;;;;;;;;;;-6.37;53.64;102839.45;1683367;85;26260;-60
2022/03/12 04:58:13;;;;;;;;;;;;;;;-6.41;53.52;102844.18;1687643;84;27547;-59
2022/03/12 05:00:41;;;;;;;;;;;;;;;-6.45;53.55;102843.25;1713529;83;25667;-59
2022/03/12 05:03:10;;;;;;;;;;;;;;;-6.48;53.61;102844.50;1699650;83;25839;-57
2022/03/12 05:05:41;;;;;;;;;;;;;;;-6.50;53.71;102856.27;1703810;83;25935;-57
2022/03/12 05:08:13;;;;;;;;;;;;;;;-6.48;53.78;102857.59;1713877;83;25720;-58
2022/03/12 05:10:40;;;;;;;;;;;;;;;-6.56;53.95;102859.21;1710988;83;28284;-58
2022/03/12 05:13:07;;;;;;;;;;;;;;;-6.55;54.06;102862.29;1699723;83;25776;-58
2022/03/12 05:15:38;;;;;;;;;;;;;;;-6.51;54.12;102859.75;1700373;83;25891;-57
2022/03/12 05:18:07;;;;;;;;;;;;;;;-6.54;54.17;102853.58;1728306;83;25718;-58
2022/03/12 05:20:38;;;;;;;;;;;;;;;-6.57;54.23;102853.11;1716596;83;26374;-58
2022/03/12 05:23:07;;;;;;;;;;;;;;;-6.54;54.28;102853.14;1715965;83;28196;-58
2022/03/12 05:25:41;;;;;;;;;;;;;;;-6.55;54.27;102858.36;1715859;83;25860;-58
2022/03/12 05:28:10;;;;;;;;;;;;;;;-6.56;54.56;102859.21;1715809;83;25716;-58
2022/03/12 05:30:36;;;;;;;;;;;;;;;-6.60;54.45;102860.91;1715590;83;25779;-58
2022/03/12 05:33:04;;;;;;;;;;;;;;;-6.66;55.00;102861.67;1715891;83;25841;-58
2022/03/12 05:35:32;;;;;;;;;;;;;;;-6.67;54.68;102857.73;1715751;83;27516;-58
2022/03/12 05:37:59;;;;;;;;;;;;;;;-6.63;54.82;102859.12;1691366;84;25720;-58
2022/03/12 05:40:29;;;;;;;;;;;;;;;-6.62;54.60;102863.51;1722915;83;25920;-58
2022/03/12 05:42:59;;;;;;;;;;;;;;;-6.58;54.66;102858.30;1699149;84;25795;-59
2022/03/12 05:45:25;;;;;;;;;;;;;;;-6.52;54.59;102858.42;1706378;84;25670;-58
2022/03/12 05:47:52;;;;;;;;;;;;;;;-6.47;54.71;102860.67;1715770;83;27494;-58
2022/03/12 05:50:19;;;;;;;;;;;;;;;-6.41;54.65;102859.48;1722817;83;25799;-59
2022/03/12 05:52:49;;;;;;;;;;;;;;;-6.35;54.48;102861.29;1722904;83;25717;-60
2022/03/12 05:55:21;;;;;;;;;;;;;;;-6.29;54.47;102858.78;1723012;83;25779;-59
2022/03/12 05:57:48;;;;;;;;;;;;;;;-6.21;54.42;102855.85;1719876;83;25735;-60
2022/03/12 06:00:16;;;;;;;;;;;;;;;-6.10;54.54;102856.00;1703220;84;27417;-59
2022/03/12 06:02:49;;;;;;;;;;;;;;;-6.04;54.48;102858.70;1703475;84;25845;-60
2022/03/12 06:05:14;;;;;;;;;;;;;;;-5.98;54.49;102856.56;1702721;84;25831;-60
2022/03/12 06:07:45;;;;;;;;;;;;;;;-5.90;54.47;102863.23;1699241;84;25893;-60
2022/03/12 06:10:24;;;;;;;;;;;;;;;-5.77;54.45;102861.21;1693370;84;25805;-62
2022/03/12 06:12:53;;;;;;;;;;;;;;;-5.68;54.23;102861.78;1693688;84;27449;-60
2022/03/12 06:15:22;;;;;;;;;;;;;;;-5.56;54.15;102871.09;1693082;84;25528;-60
2022/03/12 06:17:50;;;;;;;;;;;;;;;-5.46;53.99;102872.10;1686239;85;25780;-59
2022/03/12 06:20:20;;;;;;;;;;;;;;;-5.40;53.74;102877.86;1686138;85;25775;-59
2022/03/12 06:22:49;;;;;;;;;;;;;;;-5.32;53.74;102883.17;1675757;83;25734;-59
2022/03/12 06:25:17;;;;;;;;;;;;;;;-5.29;53.61;102877.98;1671122;85;27662;-60
2022/03/12 06:27:47;;;;;;;;;;;;;;;-5.24;53.57;102874.95;1699196;83;25813;-59
2022/03/12 06:30:15;;;;;;;;;;;;;;;-5.16;53.60;102874.64;1688060;83;25826;-60
2022/03/12 06:32:43;;;;;;;;;;;;;;;-5.09;53.61;102876.46;1690093;83;25831;-59
2022/03/12 06:35:12;;;;;;;;;;;;;;;-5.01;53.47;102867.33;1695839;83;25706;-59
2022/03/12 06:37:39;;;;;;;;;;;;;;;-4.94;53.43;102877.05;1690482;83;27476;-58
2022/03/12 06:40:09;;;;;;;;;;;;;;;-4.87;53.40;102870.09;1694880;83;25792;-59
2022/03/12 06:42:39;;;;;;;;;;;;;;;-4.79;53.45;102874.98;1684632;83;25839;-59
2022/03/12 06:45:08;;;;;;;;;;;;;;;-4.72;53.30;102866.33;1715358;83;25829;-59
2022/03/12 06:47:38;;;;;;;;;;;;;;;-4.65;53.22;102871.17;1715112;83;25701;-58
2022/03/12 06:50:09;;;;;;;;;;;;;;;-4.60;53.07;102869.48;1701745;83;27492;-58
2022/03/12 06:52:35;;;;;;;;;;;;;;;-4.52;53.00;102869.53;1694240;83;25832;-58
2022/03/12 06:55:02;;;;;;;;;;;;;;;-4.43;52.91;102870.92;1686113;84;25888;-58
2022/03/12 06:57:29;;;;;;;;;;;;;;;-4.35;52.87;102868.36;1685639;85;25911;-58
2022/03/12 06:59:56;;;;;;;;;;;;;;;-4.25;52.56;102874.55;1683065;84;25804;-59
2022/03/12 07:02:22;;;;;;;;;;;;;;;-4.14;52.41;102879.45;1681071;84;27604;-59
2022/03/12 07:04:49;;;;;;;;;;;;;;;-4.05;52.13;102881.28;1681176;84;25296;-58
2022/03/12 07:07:15;;;;;;;;;;;;;;;-3.99;52.07;102883.94;1684454;85;25471;-59
2022/03/12 07:09:42;;;;;;;;;;;;;;;-3.90;51.90;102882.23;1688554;85;26126;-59
2022/03/12 07:12:09;;;;;;;;;;;;;;;-3.82;51.46;102883.16;1698580;83;25736;-58
2022/03/12 07:14:36;;;;;;;;;;;;;;;-3.73;51.67;102878.39;1694697;83;27286;-58
2022/03/12 07:17:04;;;;;;;;;;;;;;;-3.64;51.23;102876.67;1678685;85;25725;-58
2022/03/12 07:19:31;;;;;;;;;;;;;;;-3.53;51.18;102873.22;1676096;85;25723;-58
2022/03/12 07:21:58;;;;;;;;;;;;;;;-3.43;50.94;102868.44;1663254;85;25744;-58
2022/03/12 07:24:24;;;;;;;;;;;;;;;-3.33;50.70;102868.02;1674749;85;25820;-58
2022/03/12 07:26:51;;;;;;;;;;;;;;;-3.23;50.58;102865.00;1680578;85;27484;-58
2022/03/12 07:29:17;;;;;;;;;;;;;;;-3.11;50.12;102867.64;1642352;86;25769;-59
2022/03/12 07:31:44;;;;;;;;;;;;;;;-2.99;50.04;102861.52;1642277;87;25749;-58
2022/03/12 07:34:10;;;;;;;;;;;;;;;-2.87;49.34;102865.95;1642652;87;26289;-58
2022/03/12 07:36:37;;;;;;;;;;;;;;;-2.76;49.24;102858.05;1642493;87;25921;-58
2022/03/12 07:39:04;;;;;;;;;;;;;;;-2.64;48.81;102859.36;1642679;87;27334;-58
2022/03/12 07:41:31;;;;;;;;;;;;;;;-2.51;47.99;102864.22;1642356;86;25838;-59
2022/03/12 07:43:58;;;;;;;;;;;;;;;-2.40;48.32;102848.39;1636811;86;25839;-58
2022/03/12 07:46:26;;;;;;;;;;;;;;;-2.26;47.72;102860.23;1647661;86;26455;-58
2022/03/12 07:48:52;;;;;;;;;;;;;;;-2.15;47.56;102858.89;1647882;86;25757;-58
2022/03/12 07:51:19;;;;;;;;;;;;;;;-2.01;47.76;102861.51;1647443;86;27532;-58
2022/03/12 07:53:46;;;;;;;;;;;;;;;-1.89;46.81;102856.22;1647704;87;25757;-57
2022/03/12 07:56:14;;;;;;;;;;;;;;;-1.75;46.23;102863.63;1643784;86;25759;-58
2022/03/12 07:58:40;;;;;;;;;;;;;;;-1.61;45.95;102847.75;1639632;86;25900;-58
2022/03/12 08:01:08;;;;;;;;;;;;;;;-1.46;44.90;102853.83;1644983;86;25647;-58
2022/03/12 08:03:36;;;;;;;;;;;;;;;-1.31;44.90;102847.17;1648848;86;28326;-57
2022/03/12 08:06:05;;;;;;;;;;;;;;;-1.14;44.18;102849.70;1650829;86;25816;-58
2022/03/12 08:08:34;;;;;;;;;;;;;;;-0.99;43.99;102846.09;1642901;86;25774;-58
2022/03/12 08:13:46;;;;;;;;;;;;;;;-0.73;42.92;102840.19;1640247;86;25662;-58
2022/03/12 08:16:15;;;;;;;;;;;;;;;-0.64;41.02;102848.91;1644263;84;27892;-58
2022/03/12 08:18:43;;;;;;;;;;;;;;;-0.52;41.07;102840.45;1678049;85;25829;-58
2022/03/12 08:21:11;;;;;;;;;;;;;;;-0.34;41.63;102838.96;1685608;85;25800;-59
2022/03/12 08:23:38;;;;;;;;;;;;;;;-0.16;41.34;102833.92;1678675;83;25770;-58
2022/03/12 08:26:06;;;;;;;;;;;;;;;0.03;39.54;102832.86;1685779;85;25778;-58
2022/03/12 08:28:34;;;;;;;;;;;;;;;0.17;40.84;102835.35;1683617;85;27510;-59
2022/03/12 08:31:02;;;;;;;;;;;;;;;0.34;40.62;102833.80;1684855;85;25863;-59
2022/03/12 08:33:29;;;;;;;;;;;;;;;0.54;40.12;102835.76;1683454;84;25899;-59
2022/03/12 08:35:56;;;;;;;;;;;;;;;0.67;38.43;102832.95;1679640;85;26384;-58
2022/03/12 08:38:23;;;;;;;;;;;;;;;0.81;38.97;102838.92;1681136;85;25543;-59
2022/03/12 08:40:53;;;;;;;;;;;;;;;1.00;35.93;102814.34;1683022;85;27488;-58
2022/03/12 08:43:21;;;;;;;;;;;;;;;1.18;35.16;102826.87;1686851;84;26023;-59
2022/03/12 08:45:48;;;;;;;;;;;;;;;1.31;34.95;102808.98;1688799;85;25736;-58
2022/03/12 08:48:16;;;;;;;;;;;;;;;1.43;34.89;102814.55;1688514;83;26494;-59
2022/03/12 08:50:44;;;;;;;;;;;;;;;1.63;33.56;102811.08;1688837;85;25468;-58
2022/03/12 08:53:11;;;;;;;;;;;;;;;1.80;33.48;102816.52;1688501;83;27482;-58
2022/03/12 08:55:38;;;;;;;;;;;;;;;1.92;34.42;102823.40;1688531;83;26083;-58
2022/03/12 08:58:06;;;;;;;;;;;;;;;2.10;33.88;102812.42;1688452;83;25749;-58
2022/03/12 09:00:33;;;;;;;;;;;;;;;2.29;33.29;102815.56;1690733;83;26648;-58
2022/03/12 09:03:00;;;;;;;;;;;;;;;2.48;33.67;102805.41;1700820;84;25536;-59
2022/03/12 09:05:27;;;;;;;;;;;;;;;2.70;32.14;102803.61;1701232;84;28264;-58
2022/03/12 09:07:53;;;;;;;;;;;;;;;2.79;32.50;102809.15;1700812;84;25749;-58
2022/03/12 09:10:21;;;;;;;;;;;;;;;2.88;32.54;102806.28;1700647;84;26140;-58
2022/03/12 09:12:48;;;;;;;;;;;;;;;3.06;33.44;102803.66;1700731;84;26447;-58
2022/03/12 09:15:17;;;;;;;;;;;;;;;3.35;33.05;102797.17;1700753;84;25768;-58
2022/03/12 09:17:44;;;;;;;;;;;;;;;3.64;31.12;102791.55;1703724;83;27431;-58
2022/03/12 09:20:11;;;;;;;;;;;;;;;3.84;32.12;102787.89;1705560;83;25992;-59
2022/03/12 09:22:38;;;;;;;;;;;;;;;4.04;30.87;102780.67;1705739;84;25546;-59
2022/03/12 09:25:08;;;;;;;;;;;;;;;4.27;30.11;102784.44;1705244;83;25872;-59
2022/03/12 09:27:35;;;;;;;;;;;;;;;4.51;28.85;102769.50;1705877;84;25618;-59
2022/03/12 09:30:02;;;;;;;;;;;;;;;4.82;30.08;102772.55;1705353;84;28192;-59
2022/03/12 09:32:29;;;;;;;;;;;;;;;5.48;30.36;102767.23;1705887;83;26360;-59
2022/03/12 09:34:55;;;;;;;;;;;;;;;6.41;27.62;102755.81;1705623;83;25741;-58
2022/03/12 09:37:21;;;;;;;;;;;;;;;7.14;27.67;102747.06;1705730;83;26883;-59
2022/03/12 09:39:48;;;;;;;;;;;;;;;7.89;27.58;102747.36;1705482;83;25697;-58
2022/03/12 09:42:14;;;;;;;;;;;;;;;8.59;26.28;102734.77;1699696;84;27312;-59
2022/03/12 09:44:41;;;;;;;;;;;;;;;9.16;26.64;102732.41;1686294;84;25897;-58
2022/03/12 09:47:08;;;;;;;;;;;;;;;9.71;27.26;102738.92;1688565;84;25789;-59
2022/03/12 09:49:36;;;;;;;;;;;;;;;10.26;26.44;102735.51;1679950;84;26552;-58
2022/03/12 09:52:04;;;;;;;;;;;;;;;10.89;25.27;102733.73;1678833;85;25947;-58
2022/03/12 09:54:31;;;;;;;;;;;;;;;11.52;24.28;102732.27;1678498;85;28062;-58
2022/03/12 09:56:58;;;;;;;;;;;;;;;11.85;23.19;102721.69;1678397;84;25569;-59
2022/03/12 09:59:25;;;;;;;;;;;;;;;12.00;23.59;102707.75;1678524;84;25786;-59
2022/03/12 10:01:55;;;;;;;;;;;;;;;12.32;21.25;102713.77;1678387;85;25965;-59
2022/03/12 10:04:22;;;;;;;;;;;;;;;12.46;23.43;102699.38;1680030;84;25766;-59
2022/03/12 10:06:48;;;;;;;;;;;;;;;12.75;21.20;102691.16;1686413;84;27495;-59
2022/03/12 10:09:15;;;;;;;;;;;;;;;12.77;20.98;102693.28;1688633;84;25779;-59
2022/03/12 10:11:42;;;;;;;;;;;;;;;12.79;21.24;102688.63;1686974;84;25483;-59
2022/03/12 10:14:10;;;;;;;;;;;;;;;12.79;22.56;102683.72;1689582;84;25861;-60
2022/03/12 10:16:37;;;;;;;;;;;;;;;13.36;20.79;102678.45;1686099;85;25901;-58
2022/03/12 10:19:03;;;;;;;;;;;;;;;13.60;22.17;102675.89;1688234;84;28188;-58
2022/03/12 10:21:32;;;;;;;;;;;;;;;14.02;19.89;102681.02;1686906;84;25444;-59
2022/03/12 10:23:59;;;;;;;;;;;;;;;13.91;18.84;102664.70;1686378;83;25512;-59
2022/03/12 10:26:26;;;;;;;;;;;;;;;14.46;18.58;102660.23;1686758;85;25832;-59
2022/03/12 10:28:53;;;;;;;;;;;;;;;14.35;17.55;102649.72;1686054;85;25758;-59
2022/03/12 10:31:22;;;;;;;;;;;;;;;14.23;19.88;102656.03;1688195;84;27505;-59
2022/03/12 10:33:48;;;;;;;;;;;;;;;14.63;17.87;102650.34;1683004;85;25720;-59
2022/03/12 10:36:17;;;;;;;;;;;;;;;14.32;18.25;102654.00;1682700;84;25736;-60
2022/03/12 10:38:46;;;;;;;;;;;;;;;14.56;19.03;102640.45;1683085;84;25709;-59
2022/03/12 10:41:13;;;;;;;;;;;;;;;15.28;19.37;102635.89;1682883;84;25667;-59
2022/03/12 10:43:45;;;;;;;;;;;;;;;15.71;19.33;102632.06;1656472;85;27497;-59
2022/03/12 10:46:23;;;;;;;;;;;;;;;15.77;18.85;102620.70;1654034;86;25801;-60
2022/03/12 10:48:57;;;;;;;;;;;;;;;16.15;18.60;102613.13;1653827;86;25710;-59
2022/03/12 10:51:38;;;;;;;;;;;;;;;16.65;18.43;102609.84;1654120;86;26627;-60
2022/03/12 10:54:08;;;;;;;;;;;;;;;16.64;17.04;102599.95;1653848;86;25774;-59
2022/03/12 10:56:43;;;;;;;;;;;;;;;17.15;17.71;102597.84;1653970;86;27455;-60
2022/03/12 10:59:12;;;;;;;;;;;;;;;17.28;17.37;102584.49;1653574;86;25850;-60
2022/03/12 11:01:47;;;;;;;;;;;;;;;17.87;18.69;102584.70;1653867;86;25821;-60
2022/03/12 11:04:26;;;;;;;;;;;;;;;17.48;15.32;102580.86;1649927;85;25787;-59
2022/03/12 11:06:55;;;;;;;;;;;;;;;17.57;17.92;102572.87;1659350;86;25785;-59
2022/03/12 11:09:39;;;;;;;;;;;;;;;17.39;16.15;102568.60;1632252;85;28243;-59
2022/03/12 11:12:30;;;;;;;;;;;;;;;16.69;15.88;102573.27;1631989;86;25775;-58
2022/03/12 11:15:16;;;;;;;;;;;;;;;16.39;15.73;102565.39;1626349;86;25729;-59
2022/03/12 11:17:46;;;;;;;;;;;;;;;17.08;15.34;102565.87;1671552;84;25999;-58
2022/03/12 11:20:21;;;;;;;;;;;;;;;15.67;16.49;102565.46;1694403;83;25841;-58
2022/03/12 11:22:50;;;;;;;;;;;;;;;14.78;17.31;102558.05;1667187;84;27482;-58
2022/03/12 11:25:22;;;;;;;;;;;;;;;15.30;18.29;102556.62;1680728;85;25750;-58
2022/03/12 11:27:50;;;;;;;;;;;;;;;15.80;17.32;102549.91;1691776;83;25745;-58
2022/03/12 11:30:22;;;;;;;;;;;;;;;15.80;17.54;102548.55;1690558;83;26707;-58
2022/03/12 11:32:52;;;;;;;;;;;;;;;15.76;17.50;102552.02;1705994;84;25696;-58
2022/03/12 11:35:22;;;;;;;;;;;;;;;15.09;17.40;102548.87;1666686;84;28453;-58
2022/03/12 11:37:47;;;;;;;;;;;;;;;15.38;16.76;102549.23;1656646;86;25727;-58
2022/03/12 11:40:19;;;;;;;;;;;;;;;14.81;17.10;102545.13;1681644;84;25333;-58
2022/03/12 11:42:48;;;;;;;;;;;;;;;14.85;18.38;102539.85;1705578;83;25781;-58
2022/03/12 11:45:15;;;;;;;;;;;;;;;14.84;18.38;102538.59;1718456;83;26052;-59
2022/03/12 11:47:44;;;;;;;;;;;;;;;14.74;17.99;102526.28;1704597;83;27856;-59
2022/03/12 11:50:16;;;;;;;;;;;;;;;14.58;17.84;102525.22;1697198;84;25876;-58
2022/03/12 11:52:45;;;;;;;;;;;;;;;14.47;17.84;102508.97;1699561;83;25711;-58
2022/03/12 11:55:21;;;;;;;;;;;;;;;13.95;17.64;102511.96;1701129;84;25897;-58
2022/03/12 11:57:49;;;;;;;;;;;;;;;13.22;18.77;102511.02;1697850;84;25753;-58
2022/03/12 12:00:30;;;;;;;;;;;;;;;13.22;18.19;102506.95;1683296;85;27614;-58
2022/03/12 12:02:57;;;;;;;;;;;;;;;12.81;18.09;102508.44;1682744;85;25835;-58
2022/03/12 12:05:28;;;;;;;;;;;;;;;12.36;19.35;102498.06;1683048;85;25694;-58
2022/03/12 12:07:55;;;;;;;;;;;;;;;12.36;19.47;102495.83;1682964;85;26034;-60
2022/03/12 12:10:35;;;;;;;;;;;;;;;11.93;18.82;102502.76;1682538;85;25745;-57
2022/03/12 12:13:01;;;;;;;;;;;;;;;11.71;19.23;102503.70;1682801;85;27526;-58
2022/03/12 12:15:36;;;;;;;;;;;;;;;11.67;20.02;102491.88;1683012;85;25547;-57
2022/03/12 12:18:07;;;;;;;;;;;;;;;11.83;19.88;102497.13;1684871;84;25773;-58
2022/03/12 12:20:34;;;;;;;;;;;;;;;11.98;20.64;102484.45;1683342;85;25767;-58
2022/03/12 12:23:03;;;;;;;;;;;;;;;12.17;19.22;102484.09;1680730;85;26382;-58
2022/03/12 12:25:34;;;;;;;;;;;;;;;12.23;19.20;102480.97;1677181;84;27616;-58
2022/03/12 12:28:13;;;;;;;;;;;;;;;12.39;19.02;102487.53;1675722;85;25779;-58
2022/03/12 12:30:43;;;;;;;;;;;;;;;12.26;19.24;102479.88;1655210;85;25821;-58
2022/03/12 12:33:19;;;;;;;;;;;;;;;12.64;18.87;102483.11;1676113;85;25851;-58
2022/03/12 12:35:47;;;;;;;;;;;;;;;12.81;18.36;102480.58;1676143;84;25836;-58
2022/03/12 12:38:15;;;;;;;;;;;;;;;12.71;18.02;102466.85;1676250;84;27518;-58
2022/03/12 12:40:47;;;;;;;;;;;;;;;13.24;18.98;102460.39;1675986;84;25775;-58
2022/03/12 12:43:20;;;;;;;;;;;;;;;14.02;18.99;102463.66;1676262;85;25837;-58
2022/03/12 12:45:57;;;;;;;;;;;;;;;14.56;17.30;102458.16;1676020;85;25779;-58
2022/03/12 12:48:30;;;;;;;;;;;;;;;14.65;17.68;102454.72;1676507;84;25842;-58